РПИ Екатеринбург

РПИ Екатеринбург

Район полетной информации Екатеринбург (Урал) является структурным подразделением дивизиона VATRUS сети VATSIM.

В зону ответственности района входит воздушное пространство над территориями шести субъектов Российской Федерации: Кировской, Пермской, Курганской, Свердловской и Челябинской областей, а также республики Удмуртия. Воздушное пространство граничит с РПИ центров Москвы, Санкт-Петербурга, Сыктывкара, Тюмени, Новосибирска и Самары, а на юге - с территорией Казахстана.

Контролируемое воздушное пространство составляет 686,6 тысяч кв. километров. В границах ответственности РПИ Екатеринбург семь аэропортов, в их числе четыре международных и три – федерального значения.

Мы в Контакте

Средства связи ОВД / ATC Units:

RU-WSC_FSS - Западная Сибирь-Контроль (USSV, USTV FIRs)

USSV_CTR - Урал-Контроль - РЦ Екатеринбург - 122.200

USSV_1_CTR - Урал-Контроль - Сектор 1 - 122.200

USSV_2_CTR - Урал-Контроль - Сектор 2 (Север) - 131.300

USSV_3_CTR - Урал-Контроль - Сектор 3 - 127.300

USSV_4_CTR - Урал-Контроль - Сектор 4 (Курган) - 119.700

USSV_5_CTR - Урал-Контроль - Сектор 5 (Магнитогорск) - 125.500

USSV_6_CTR - Урал-Контроль - Сектор 6 (Челябинск) - 125.400

USSV_7_CTR - Урал-Контроль - Сектор 7  - 135.100

USSV_8_CTR - Урал-Контроль - Сектор 8 (Пермь) - 133.700

USSV_9_CTR - Урал-Контроль - Сектор 9 (Киров-Север) - 125.200

USSV_10_CTR - Урал-Контроль - Сектор 10 (Киров-Юг) - 132.200

Руководитель РПИ

Andrey Tonkachev

Инструкторы РПИ
Andrey Tonkachev * (Senior Student)
Anton Agaev (Instructor)
Dmitriy Bannov * (Controller)
Ivan Skatov (Instructor)
Kirill Rudavin (Instructor)
Maxim Gerasimov (Instructor)
Входит в состав
ЗЦ Екатеринбург

Диспетчеры РПИ

Диспетчер Рейтинг Допуски *
Anton Agaev Instructor USSV_CTR
Anton Fedosin Controller USSV_CTR
Dmitriy Bannov Controller USSV_CTR
Kirill Rudavin Instructor USSV_CTR
Maxim Gerasimov Instructor USSV_CTR
Vadim Filev Controller USSV_CTR
Aleksey Garmash Student USSS_GND
Alexander Nesterov Student USSS_GND
Alexander Shkut Student 2 USCM_TWR, USSS_APP*, USUU_TWR
Alexandr Jaschinsky Student USSS_TWR*, USSS_GND
Andrey Bezverkhov Senior Student USSS_APP
Andrey Gridchin Controller USSS_APP
Andrey Shestakov Senior Student USCC_APP, USCM_TWR, USPP_APP, USSS_APP, USUU_TWR
Andrey Tonkachev Senior Student USCC_APP, USCM_TWR, USPP_APP, USSS_APP, USUU_TWR
Egor Nosov Student USSS_GND
Eldar Aliev Student 2 USCC_TWR, USPP_TWR, USSS_R_APP*
Farid Bakirov Senior Student USSS_APP
Ivan Malygin Senior Student USCC_APP, USCM_TWR, USPP_APP, USSS_APP, USUU_TWR
Kirill Ardatov Student 2 USSS_TWR
Kirill Shabunin Senior Controller USSS_APP
Konstantin Norkin Student 2 USSS_TWR
Nika Avdalov Student 2 USCC_TWR, USPP_TWR, USSS_TWR
Stepan Seleznev Student 2 USSS_GND
Timur isikdemir Student USSS_GND
Vladislav Kepkov Student 2 USCC_TWR
Vsevolod Skryabin Student 2 USSS_TWR!!!

Аэропорты РПИ

ICAO Город Название Погода
USSS Екатеринбург Кольцово USSS 161730Z 27007MPS 9999 SCT029 M14/M17 Q0987 R26L/320042 NOSIG RMK QFE720/0960
USII Ижевск Ижевск
USKK Киров Киров
USUU Курган Курган
USCM Магнитогорск Магнитогорск USCM 161730Z 25008MPS 6000 BLSN BKN020 M15/M19 Q0992 R18/910152 TEMPO 25018MPS 2000 BLSN VV005 RMK QFE707
USPP Пермь Пермь USPP 161730Z 26003MPS 9999 -SN BKN015 M17/M19 Q0991 R21/490535 TEMPO BKN003 RMK QFE732
USCC Челябинск Челябинск USCC 161730Z 27007MPS 9999 DRSN SCT030CB M13/M17 Q0988 R27/590534 NOSIG RMK QFE722